createdAt,value
2017-03-23T00:00:03.620Z,0
2017-03-23T00:01:03.206Z,0
2017-03-23T00:02:03.217Z,0
2017-03-23T00:03:03.808Z,0
2017-03-23T00:04:03.900Z,0
2017-03-23T00:05:03.837Z,0
2017-03-23T00:06:04.348Z,0
2017-03-23T00:07:05.316Z,0
2017-03-23T00:08:05.379Z,0
2017-03-23T00:09:05.461Z,0
2017-03-23T00:10:05.438Z,0
2017-03-23T00:11:05.103Z,0
2017-03-23T00:12:05.104Z,0
2017-03-23T00:13:05.590Z,0
2017-03-23T00:14:06.107Z,0
2017-03-23T00:15:06.655Z,0
2017-03-23T00:16:06.968Z,0
2017-03-23T00:17:07.027Z,0
2017-03-23T00:18:07.142Z,0
2017-03-23T00:19:07.185Z,0
2017-03-23T00:20:07.022Z,0
2017-03-23T00:21:06.857Z,0
2017-03-23T00:22:06.811Z,0
2017-03-23T00:23:07.335Z,0
2017-03-23T00:24:07.893Z,0
2017-03-23T00:25:08.132Z,0
2017-03-23T00:26:07.875Z,0
2017-03-23T00:27:08.815Z,0
2017-03-23T00:28:08.634Z,0
2017-03-23T00:29:08.896Z,0
2017-03-23T00:30:08.962Z,0
2017-03-23T00:31:08.536Z,0
2017-03-23T00:32:09.055Z,0
2017-03-23T00:33:09.587Z,0
2017-03-23T00:34:09.606Z,0
2017-03-23T00:35:10.146Z,0
2017-03-23T00:36:10.586Z,0
2017-03-23T00:37:10.460Z,0
2017-03-23T00:38:10.618Z,0
2017-03-23T00:39:10.688Z,0
2017-03-23T00:40:10.669Z,0
2017-03-23T00:41:10.292Z,0
2017-03-23T00:42:10.832Z,0
2017-03-23T00:43:10.861Z,0
2017-03-23T00:44:10.904Z,0
2017-03-23T00:45:10.935Z,0
2017-03-23T00:46:10.900Z,0
2017-03-23T00:47:11.715Z,0
2017-03-23T00:48:11.896Z,0
2017-03-23T00:49:12.049Z,0
2017-03-23T00:50:12.256Z,0
2017-03-23T00:51:11.704Z,0
2017-03-23T00:52:11.655Z,0
2017-03-23T00:53:12.172Z,0
2017-03-23T00:54:12.188Z,0
2017-03-23T00:55:13.060Z,0
2017-03-23T00:56:13.086Z,0
2017-03-23T00:57:13.176Z,0
2017-03-23T00:58:13.174Z,0
2017-03-23T00:59:13.233Z,0
2017-03-23T01:00:13.138Z,0
2017-03-23T01:01:13.059Z,0
2017-03-23T01:02:13.241Z,0
2017-03-23T01:03:13.385Z,0
2017-03-23T01:04:13.380Z,0
2017-03-23T01:05:13.014Z,0
2017-03-23T01:06:13.037Z,0
2017-03-23T01:07:13.004Z,0
2017-03-23T01:08:13.565Z,0
2017-03-23T01:09:13.645Z,0
2017-03-23T01:10:13.646Z,0
2017-03-23T01:11:13.608Z,0
2017-03-23T01:12:14.024Z,0
2017-03-23T01:13:14.087Z,0
2017-03-23T01:14:14.118Z,0
2017-03-23T01:15:14.155Z,0
2017-03-23T01:16:13.754Z,0
2017-03-23T01:17:13.808Z,0
2017-03-23T01:18:14.184Z,0
2017-03-23T01:19:13.842Z,0
2017-03-23T01:20:13.860Z,0
2017-03-23T01:21:13.886Z,0
2017-03-23T01:22:14.076Z,0
2017-03-23T01:23:14.336Z,0
2017-03-23T01:24:14.371Z,0
2017-03-23T01:25:14.408Z,0
2017-03-23T01:26:14.021Z,0
2017-03-23T01:27:14.024Z,0
2017-03-23T01:28:14.523Z,0
2017-03-23T01:29:15.090Z,0
2017-03-23T01:30:15.085Z,0
2017-03-23T01:31:15.595Z,0
2017-03-23T01:32:16.596Z,0
2017-03-23T01:33:16.618Z,0
2017-03-23T01:34:16.638Z,0
2017-03-23T01:35:16.953Z,0
2017-03-23T01:36:16.298Z,0
2017-03-23T01:37:16.325Z,0
2017-03-23T01:38:16.355Z,0
2017-03-23T01:39:16.365Z,0
2017-03-23T01:40:17.120Z,0
2017-03-23T01:41:16.887Z,0
2017-03-23T01:42:17.903Z,0
2017-03-23T01:43:18.042Z,0
2017-03-23T01:44:18.023Z,0
2017-03-23T01:45:18.040Z,0
2017-03-23T01:46:17.665Z,0
2017-03-23T01:47:18.159Z,0
2017-03-23T01:48:18.660Z,0
2017-03-23T01:49:19.192Z,0
2017-03-23T01:50:19.193Z,0
2017-03-23T01:51:19.723Z,0
2017-03-23T01:52:19.932Z,0
2017-03-23T01:53:20.066Z,0
2017-03-23T01:54:20.207Z,0
2017-03-23T01:55:20.366Z,0
2017-03-23T01:56:19.848Z,0
2017-03-23T01:57:20.379Z,0
2017-03-23T01:58:20.406Z,0
2017-03-23T01:59:20.478Z,0
2017-03-23T02:00:20.433Z,0
2017-03-23T02:01:21.464Z,0
2017-03-23T02:02:21.783Z,0
2017-03-23T02:03:21.526Z,0
2017-03-23T02:04:21.509Z,0
2017-03-23T02:05:21.538Z,0
2017-03-23T02:06:21.232Z,0
2017-03-23T02:07:21.261Z,0
2017-03-23T02:08:21.240Z,0
2017-03-23T02:09:21.796Z,0
2017-03-23T02:11:06.859Z,0
2017-03-23T02:11:22.106Z,0
2017-03-23T02:12:22.171Z,0
2017-03-23T02:13:22.202Z,0
2017-03-23T02:15:15.022Z,0
2017-03-23T02:15:32.332Z,0
2017-03-23T02:40:58.256Z,0
2017-03-23T02:41:55.642Z,0
2017-03-23T02:42:50.997Z,0
2017-03-23T02:43:51.474Z,0
2017-03-23T02:44:51.950Z,0
2017-03-23T02:45:52.438Z,0
2017-03-23T02:46:52.865Z,0
2017-03-23T02:47:53.351Z,0
2017-03-23T02:48:53.816Z,0
2017-03-23T02:49:54.285Z,0
2017-03-23T02:51:19.363Z,0
2017-03-23T02:52:03.855Z,0
2017-03-23T02:53:01.434Z,0
2017-03-23T02:54:02.396Z,0
2017-03-23T02:55:23.563Z,0
2017-03-23T02:56:03.115Z,0
2017-03-23T02:57:03.520Z,0
2017-03-23T02:58:03.916Z,0
2017-03-23T02:59:04.311Z,0
2017-03-23T03:00:04.702Z,0
2017-03-23T03:01:05.095Z,0
2017-03-23T03:02:05.965Z,0
2017-03-23T03:03:06.074Z,0
2017-03-23T03:04:05.658Z,0
2017-03-23T03:05:06.047Z,0
2017-03-23T03:06:06.436Z,0
2017-03-23T03:07:06.810Z,0
2017-03-23T03:08:52.866Z,0
2017-03-23T03:09:33.841Z,0
2017-03-23T03:24:10.350Z,0
2017-03-23T03:25:06.065Z,0
2017-03-23T03:26:06.054Z,0
2017-03-23T03:27:06.431Z,0
2017-03-23T03:28:06.817Z,0
2017-03-23T03:29:07.195Z,0
2017-03-23T03:30:07.577Z,0
2017-03-23T03:31:07.965Z,0
2017-03-23T03:32:08.344Z,0
2017-03-23T03:33:08.730Z,0
2017-03-23T03:34:09.139Z,0
2017-03-23T03:35:09.686Z,0
2017-03-23T03:36:09.552Z,0
2017-03-23T03:37:09.939Z,0
2017-03-23T03:38:10.529Z,0
2017-03-23T03:39:10.925Z,0
2017-03-23T03:40:11.514Z,0
2017-03-23T03:41:11.336Z,0
2017-03-23T03:42:11.737Z,0
2017-03-23T03:43:12.140Z,0
2017-03-23T03:44:12.543Z,0
2017-03-23T03:45:13.027Z,0
2017-03-23T03:46:13.426Z,0
2017-03-23T03:47:13.818Z,0
2017-03-23T03:48:14.215Z,0
2017-03-23T03:49:14.605Z,0
2017-03-23T03:50:15.164Z,0
2017-03-23T03:51:15.013Z,0
2017-03-23T03:52:15.409Z,0
2017-03-23T03:53:15.811Z,0
2017-03-23T03:54:16.204Z,0
2017-03-23T03:55:16.754Z,0
2017-03-23T03:56:16.619Z,0
2017-03-23T03:57:17.017Z,0
2017-03-23T03:58:17.410Z,0
2017-03-23T03:59:17.810Z,0
2017-03-23T04:00:18.303Z,0
2017-03-23T04:01:18.681Z,0
2017-03-23T04:02:19.095Z,0
2017-03-23T04:03:19.500Z,0
2017-03-23T04:04:19.902Z,0
2017-03-23T04:05:20.483Z,0
2017-03-23T04:06:20.323Z,0
2017-03-23T04:07:20.715Z,0
2017-03-23T04:08:21.106Z,0
2017-03-23T04:09:21.495Z,0
2017-03-23T04:10:22.040Z,0
2017-03-23T04:11:21.909Z,0
2017-03-23T04:12:22.308Z,0
2017-03-23T04:13:22.693Z,0
2017-03-23T04:14:23.088Z,0
2017-03-23T04:15:23.634Z,0
2017-03-23T04:16:23.488Z,0
2017-03-23T04:17:23.885Z,0
2017-03-23T04:18:24.294Z,0
2017-03-23T04:19:24.684Z,0
2017-03-23T04:20:25.376Z,0
2017-03-23T04:21:25.084Z,0
2017-03-23T04:22:25.472Z,0
2017-03-23T04:23:25.870Z,0
2017-03-23T04:24:26.276Z,0
2017-03-23T04:25:26.825Z,0
2017-03-23T04:26:26.694Z,0
2017-03-23T04:27:27.087Z,0
2017-03-23T04:28:27.484Z,0
2017-03-23T04:29:27.876Z,0
2017-03-23T04:30:28.389Z,0
2017-03-23T04:31:28.303Z,0
2017-03-23T04:32:28.689Z,0
2017-03-23T04:33:29.090Z,0
2017-03-23T04:34:29.497Z,0
2017-03-23T04:35:30.043Z,0
2017-03-23T04:36:29.897Z,0
2017-03-23T04:37:30.291Z,0
2017-03-23T04:38:30.697Z,0
2017-03-23T04:39:31.098Z,0
2017-03-23T04:40:31.505Z,0
2017-03-23T04:41:31.903Z,0
2017-03-23T04:42:32.303Z,0
2017-03-23T04:43:32.705Z,0
2017-03-23T04:44:33.097Z,0
2017-03-23T04:45:33.505Z,0
2017-03-23T04:46:33.900Z,0
2017-03-23T04:47:34.301Z,0
2017-03-23T04:48:34.705Z,0
2017-03-23T04:49:35.090Z,0
2017-03-23T04:50:35.459Z,0
2017-03-23T04:51:35.851Z,0
2017-03-23T04:52:36.225Z,0
2017-03-23T04:53:36.629Z,0
2017-03-23T04:54:37.053Z,0
2017-03-23T04:55:37.449Z,0
2017-03-23T04:56:37.858Z,0
2017-03-23T04:57:38.254Z,0
2017-03-23T04:58:38.664Z,0
2017-03-23T04:59:39.048Z,0
2017-03-23T05:00:39.527Z,0
2017-03-23T05:01:39.984Z,0
2017-03-23T05:02:40.437Z,0
2017-03-23T05:03:40.908Z,0
2017-03-23T05:04:41.375Z,0
2017-03-23T05:05:42.104Z,0
2017-03-23T05:06:41.837Z,0
2017-03-23T05:07:42.309Z,0
2017-03-23T05:08:42.780Z,0
2017-03-23T05:09:43.224Z,0
2017-03-23T05:10:43.700Z,0
2017-03-23T05:11:44.166Z,0
2017-03-23T05:12:44.616Z,0
2017-03-23T05:13:45.087Z,0
2017-03-23T05:14:45.557Z,0
2017-03-23T05:15:46.282Z,5
2017-03-23T05:16:46.007Z,5
2017-03-23T05:17:46.474Z,5
2017-03-23T05:18:46.931Z,5
2017-03-23T05:19:47.383Z,5
2017-03-23T05:20:47.829Z,5
2017-03-23T05:21:48.303Z,5
2017-03-23T05:22:48.745Z,5
2017-03-23T05:23:49.214Z,5
2017-03-23T05:24:49.679Z,5
2017-03-23T05:25:50.147Z,5
2017-03-23T05:26:50.629Z,5
2017-03-23T05:27:51.102Z,5
2017-03-23T05:28:51.550Z,10
2017-03-23T05:29:52.018Z,10
2017-03-23T05:30:52.505Z,10
2017-03-23T05:31:52.966Z,10
2017-03-23T05:32:53.418Z,10
2017-03-23T05:33:53.910Z,10
2017-03-23T05:34:54.377Z,10
2017-03-23T05:35:55.101Z,10
2017-03-23T05:36:54.865Z,10
2017-03-23T05:37:55.316Z,10
2017-03-23T05:38:55.779Z,15
2017-03-23T05:39:56.235Z,15
2017-03-23T05:40:56.712Z,15
2017-03-23T05:41:57.182Z,20
2017-03-23T05:42:57.713Z,20
2017-03-23T05:43:58.173Z,20
2017-03-23T05:44:58.633Z,20
2017-03-23T05:45:59.252Z,20
2017-03-23T05:46:59.116Z,25
2017-03-23T05:47:59.590Z,25
2017-03-23T05:49:00.034Z,25
2017-03-23T05:50:00.519Z,25
2017-03-23T05:51:00.966Z,25
2017-03-23T05:52:01.408Z,25
2017-03-23T05:53:01.857Z,25
2017-03-23T05:54:02.306Z,30
2017-03-23T05:55:02.776Z,30
2017-03-23T05:56:03.206Z,30
2017-03-23T05:57:03.652Z,30
2017-03-23T05:58:04.108Z,30
2017-03-23T05:59:04.575Z,35
2017-03-23T06:00:05.034Z,35
2017-03-23T06:01:05.507Z,35
2017-03-23T06:02:05.969Z,35
2017-03-23T06:03:06.411Z,35
2017-03-23T06:04:06.877Z,35
2017-03-23T06:05:07.337Z,35
2017-03-23T06:06:07.889Z,35
2017-03-23T06:07:07.796Z,35
2017-03-23T06:08:08.260Z,35
2017-03-23T06:09:08.721Z,35
2017-03-23T06:10:09.196Z,40
2017-03-23T06:11:09.924Z,40
2017-03-23T06:12:09.684Z,40
2017-03-23T06:13:10.136Z,45
2017-03-23T06:14:10.601Z,45
2017-03-23T06:15:11.055Z,45
2017-03-23T06:16:11.540Z,45
2017-03-23T06:17:11.989Z,45
2017-03-23T06:18:12.431Z,45
2017-03-23T06:19:12.909Z,45
2017-03-23T06:20:13.367Z,45
2017-03-23T06:21:13.928Z,45
2017-03-23T06:22:13.829Z,45
2017-03-23T06:23:14.302Z,45
2017-03-23T06:24:14.753Z,45
2017-03-23T06:25:15.230Z,45
2017-03-23T06:26:16.005Z,40
2017-03-23T06:27:15.706Z,40
2017-03-23T06:28:16.175Z,40
2017-03-23T06:29:16.622Z,35
2017-03-23T06:30:17.088Z,35
2017-03-23T06:31:17.539Z,35
2017-03-23T06:32:17.979Z,35
2017-03-23T06:33:18.445Z,40
2017-03-23T06:34:18.882Z,40
2017-03-23T06:35:19.351Z,40
2017-03-23T06:36:19.916Z,35
2017-03-23T06:37:19.841Z,35
2017-03-23T06:38:20.314Z,35
2017-03-23T06:39:20.787Z,35
2017-03-23T06:40:21.260Z,35
2017-03-23T06:41:21.862Z,35
2017-03-23T06:42:21.719Z,40
2017-03-23T06:43:22.173Z,40
2017-03-23T06:44:22.637Z,40
2017-03-23T06:45:23.100Z,40
2017-03-23T06:46:23.695Z,45
2017-03-23T06:47:23.584Z,45
2017-03-23T06:48:24.020Z,50
2017-03-23T06:49:24.468Z,55
2017-03-23T06:50:24.943Z,55
2017-03-23T06:51:25.384Z,55
2017-03-23T06:52:25.839Z,60
2017-03-23T06:53:26.292Z,60
2017-03-23T06:54:26.762Z,60
2017-03-23T06:55:27.227Z,60
2017-03-23T06:56:27.809Z,60
2017-03-23T06:57:27.693Z,65
2017-03-23T06:58:28.137Z,65
2017-03-23T06:59:28.571Z,70
2017-03-23T07:00:29.025Z,75
2017-03-23T07:01:29.502Z,80
2017-03-23T07:02:29.970Z,85
2017-03-23T07:03:30.409Z,90
2017-03-23T07:04:30.885Z,90
2017-03-23T07:05:31.384Z,90
2017-03-23T07:06:32.251Z,95
2017-03-23T07:07:31.853Z,95
2017-03-23T07:08:32.300Z,95
2017-03-23T07:09:32.773Z,100
2017-03-23T07:10:33.255Z,110
2017-03-23T07:11:33.694Z,110
2017-03-23T07:12:34.668Z,125
2017-03-23T07:13:34.686Z,135
2017-03-23T07:14:34.694Z,150
2017-03-23T07:15:34.763Z,165
2017-03-23T07:16:34.763Z,170
2017-03-23T07:17:34.812Z,175
2017-03-23T07:18:34.829Z,180
2017-03-23T07:19:34.849Z,180
2017-03-23T07:20:34.889Z,180
2017-03-23T07:21:35.049Z,175
2017-03-23T07:22:34.933Z,175
2017-03-23T07:23:34.957Z,170
2017-03-23T07:24:34.991Z,175
2017-03-23T07:25:35.012Z,165
2017-03-23T07:26:35.250Z,165
2017-03-23T07:27:35.094Z,165
2017-03-23T07:28:35.090Z,160
2017-03-23T07:29:35.143Z,160
2017-03-23T07:30:35.156Z,160
2017-03-23T07:31:35.187Z,160
2017-03-23T07:32:35.210Z,155
2017-03-23T07:33:35.260Z,155
2017-03-23T07:34:35.284Z,155
2017-03-23T07:35:35.311Z,155
2017-03-23T07:36:35.332Z,150
2017-03-23T07:37:35.344Z,150
2017-03-23T07:38:35.368Z,145
2017-03-23T07:39:35.413Z,135
2017-03-23T07:40:35.430Z,125
2017-03-23T07:41:35.465Z,115
2017-03-23T07:42:35.469Z,110
2017-03-23T07:43:35.527Z,100
2017-03-23T07:44:35.549Z,95
2017-03-23T07:45:35.557Z,95
2017-03-23T07:46:35.610Z,90
2017-03-23T07:47:35.635Z,90
2017-03-23T07:48:35.657Z,90
2017-03-23T07:49:35.681Z,95
2017-03-23T07:50:35.699Z,95
2017-03-23T07:51:35.728Z,95
2017-03-23T07:52:35.751Z,100
2017-03-23T07:53:35.805Z,105
2017-03-23T07:54:35.819Z,105
2017-03-23T07:55:35.856Z,110
2017-03-23T07:56:35.886Z,115
2017-03-23T07:57:35.989Z,120
2017-03-23T07:58:35.962Z,125
2017-03-23T07:59:35.954Z,130
2017-03-23T08:00:36.002Z,135
2017-03-23T08:01:36.009Z,140
2017-03-23T08:02:36.147Z,150
2017-03-23T08:03:36.029Z,150
2017-03-23T08:04:36.110Z,155
2017-03-23T08:05:36.110Z,155
2017-03-23T08:06:36.132Z,150
2017-03-23T08:07:36.323Z,145
2017-03-23T08:08:36.214Z,145
2017-03-23T08:09:36.287Z,140
2017-03-23T08:10:36.276Z,140
2017-03-23T08:11:36.281Z,140
2017-03-23T08:12:36.468Z,145
2017-03-23T08:13:36.332Z,145
2017-03-23T08:14:36.360Z,145
2017-03-23T08:15:36.414Z,150
2017-03-23T08:16:36.433Z,155
2017-03-23T08:17:36.795Z,155
2017-03-23T08:18:36.493Z,165
2017-03-23T08:19:36.513Z,170
2017-03-23T08:20:36.517Z,170
2017-03-23T08:21:36.574Z,175
2017-03-23T08:22:36.638Z,175
2017-03-23T08:23:36.608Z,175
2017-03-23T08:24:36.683Z,175
2017-03-23T08:25:36.685Z,175
2017-03-23T08:26:36.696Z,180
2017-03-23T08:27:36.750Z,180
2017-03-23T08:28:36.786Z,185
2017-03-23T08:29:36.819Z,195
2017-03-23T08:30:36.820Z,205
2017-03-23T08:31:36.856Z,220
2017-03-23T08:32:36.872Z,230
2017-03-23T08:33:36.920Z,245
2017-03-23T08:34:36.939Z,250
2017-03-23T08:35:36.963Z,260
2017-03-23T08:36:36.981Z,270
2017-03-23T08:37:36.975Z,280
2017-03-23T08:38:37.029Z,280
2017-03-23T08:39:37.070Z,290
2017-03-23T08:40:37.092Z,295
2017-03-23T08:41:37.118Z,295
2017-03-23T08:42:37.145Z,285
2017-03-23T08:43:37.195Z,270
2017-03-23T08:44:37.190Z,255
2017-03-23T08:45:37.228Z,245
2017-03-23T08:46:37.259Z,235
2017-03-23T08:47:37.319Z,235
2017-03-23T08:48:37.419Z,235
2017-03-23T08:49:37.366Z,240
2017-03-23T08:50:37.391Z,240
2017-03-23T08:51:37.407Z,230
2017-03-23T08:52:37.425Z,220
2017-03-23T08:53:37.559Z,210
2017-03-23T08:54:37.489Z,205
2017-03-23T08:55:37.512Z,205
2017-03-23T08:56:37.562Z,215
2017-03-23T08:57:37.593Z,235
2017-03-23T08:58:37.759Z,255
2017-03-23T08:59:37.652Z,275
2017-03-23T09:00:37.684Z,290
2017-03-23T09:01:37.713Z,285
2017-03-23T09:02:37.732Z,270
2017-03-23T09:03:38.011Z,255
2017-03-23T09:04:37.792Z,250
2017-03-23T09:05:37.865Z,250
2017-03-23T09:06:37.824Z,250
2017-03-23T09:07:37.871Z,245
2017-03-23T09:08:38.012Z,245
2017-03-23T09:09:37.933Z,245
2017-03-23T09:10:37.976Z,245
2017-03-23T09:11:37.991Z,240
2017-03-23T09:12:38.008Z,230
2017-03-23T09:13:38.021Z,225
2017-03-23T09:14:38.091Z,225
2017-03-23T09:15:38.104Z,230
2017-03-23T09:16:38.134Z,235
2017-03-23T09:17:38.178Z,235
2017-03-23T09:18:38.171Z,235
2017-03-23T09:19:38.226Z,225
2017-03-23T09:20:38.228Z,220
2017-03-23T09:21:38.269Z,210
2017-03-23T09:22:38.320Z,205
2017-03-23T09:23:38.327Z,205
2017-03-23T09:24:38.359Z,210
2017-03-23T09:25:38.404Z,220
2017-03-23T09:26:38.429Z,220
2017-03-23T09:27:38.409Z,220
2017-03-23T09:28:38.469Z,220
2017-03-23T09:29:38.500Z,220
2017-03-23T09:30:38.544Z,210
2017-03-23T09:31:38.575Z,205
2017-03-23T09:32:38.567Z,200
2017-03-23T09:33:38.602Z,200
2017-03-23T09:34:38.667Z,190
2017-03-23T09:35:38.676Z,185
2017-03-23T09:36:38.693Z,185
2017-03-23T09:37:38.748Z,180
2017-03-23T09:38:38.759Z,180
2017-03-23T09:39:38.907Z,175
2017-03-23T09:40:38.825Z,180
2017-03-23T09:41:38.858Z,170
2017-03-23T09:42:38.901Z,170
2017-03-23T09:43:38.928Z,170
2017-03-23T09:44:39.194Z,170
2017-03-23T09:45:38.974Z,175
2017-03-23T09:46:39.007Z,180
2017-03-23T09:47:39.040Z,185
2017-03-23T09:48:39.073Z,185
2017-03-23T09:49:39.187Z,185
2017-03-23T09:50:39.124Z,185
2017-03-23T09:51:39.139Z,185
2017-03-23T09:52:39.182Z,185
2017-03-23T09:53:39.206Z,180
2017-03-23T09:54:39.322Z,190
2017-03-23T09:55:39.230Z,190
2017-03-23T09:56:39.280Z,200
2017-03-23T09:57:39.330Z,200
2017-03-23T09:58:39.350Z,190
2017-03-23T09:59:39.475Z,190
2017-03-23T10:00:39.394Z,195
2017-03-23T10:01:39.426Z,200
2017-03-23T10:02:39.476Z,210
2017-03-23T10:03:39.495Z,215
2017-03-23T10:04:39.533Z,220
2017-03-23T10:05:39.539Z,225
2017-03-23T10:06:39.578Z,225
2017-03-23T10:07:39.589Z,215
2017-03-23T10:08:39.629Z,215
2017-03-23T10:09:39.672Z,205
2017-03-23T10:10:39.702Z,195
2017-03-23T10:11:39.734Z,185
2017-03-23T10:12:39.744Z,185
2017-03-23T10:13:39.776Z,185
2017-03-23T10:14:39.789Z,180
2017-03-23T10:15:39.824Z,175
2017-03-23T10:16:39.856Z,180
2017-03-23T10:17:39.899Z,180
2017-03-23T10:18:39.922Z,185
2017-03-23T10:19:39.940Z,185
2017-03-23T10:20:39.965Z,185
2017-03-23T10:21:40.000Z,185
2017-03-23T10:22:40.001Z,170
2017-03-23T10:23:40.063Z,170
2017-03-23T10:24:40.105Z,170
2017-03-23T10:25:40.497Z,170
2017-03-23T10:26:40.171Z,170
2017-03-23T10:27:40.188Z,170
2017-03-23T10:28:40.204Z,170
2017-03-23T10:29:40.245Z,170
2017-03-23T10:30:40.373Z,170
2017-03-23T10:31:40.308Z,165
2017-03-23T10:32:40.328Z,160
2017-03-23T10:33:40.377Z,160
2017-03-23T10:34:40.372Z,165
2017-03-23T10:35:40.525Z,160
2017-03-23T10:36:40.447Z,160
2017-03-23T10:37:40.490Z,170
2017-03-23T10:38:40.517Z,175
2017-03-23T10:39:40.754Z,185
2017-03-23T10:40:40.680Z,190
2017-03-23T10:41:40.574Z,195
2017-03-23T10:42:40.631Z,200
2017-03-23T10:43:40.634Z,210
2017-03-23T10:44:40.661Z,220
2017-03-23T10:45:40.795Z,225
2017-03-23T10:46:40.725Z,225
2017-03-23T10:47:40.779Z,235
2017-03-23T10:48:40.769Z,245
2017-03-23T10:49:40.836Z,245
2017-03-23T10:50:40.855Z,250
2017-03-23T10:51:40.887Z,260
2017-03-23T10:52:40.934Z,265
2017-03-23T10:53:40.931Z,275
2017-03-23T10:54:40.982Z,280
2017-03-23T10:55:40.978Z,290
2017-03-23T10:56:41.030Z,290
2017-03-23T10:57:41.067Z,285
2017-03-23T10:58:41.097Z,280
2017-03-23T10:59:41.129Z,285
2017-03-23T11:00:41.150Z,290
2017-03-23T11:01:41.186Z,290
2017-03-23T11:02:41.216Z,290
2017-03-23T11:03:41.223Z,295
2017-03-23T11:04:41.260Z,295
2017-03-23T11:05:41.524Z,285
2017-03-23T11:06:41.335Z,295
2017-03-23T11:07:41.347Z,295
2017-03-23T11:08:41.393Z,295
2017-03-23T11:09:41.424Z,290
2017-03-23T11:10:41.456Z,280
2017-03-23T11:11:41.533Z,270
2017-03-23T11:12:41.506Z,270
2017-03-23T11:13:41.553Z,265
2017-03-23T11:14:41.656Z,260
2017-03-23T11:15:41.601Z,255
2017-03-23T11:16:41.608Z,240
2017-03-23T11:17:41.635Z,235
2017-03-23T11:18:41.686Z,215
2017-03-23T11:19:41.970Z,205
2017-03-23T11:20:41.792Z,205
2017-03-23T11:21:41.779Z,205
2017-03-23T11:22:41.807Z,210
2017-03-23T11:23:41.828Z,220
2017-03-23T11:24:41.983Z,220
2017-03-23T11:25:41.894Z,220
2017-03-23T11:26:41.928Z,220
2017-03-23T11:27:41.953Z,220
2017-03-23T11:28:41.971Z,220
2017-03-23T11:29:42.102Z,215
2017-03-23T11:30:42.058Z,215
2017-03-23T11:31:42.075Z,210
2017-03-23T11:32:42.110Z,195
2017-03-23T11:33:42.139Z,190
2017-03-23T11:34:42.261Z,180
2017-03-23T11:35:42.193Z,175
2017-03-23T11:36:42.228Z,165
2017-03-23T11:37:42.222Z,155
2017-03-23T11:38:42.252Z,160
2017-03-23T11:39:42.291Z,165
2017-03-23T11:40:42.343Z,170
2017-03-23T11:41:42.354Z,170
2017-03-23T11:42:42.405Z,170
2017-03-23T11:43:42.425Z,175
2017-03-23T11:44:42.461Z,170
2017-03-23T11:45:42.475Z,170
2017-03-23T11:46:42.499Z,170
2017-03-23T11:47:42.542Z,175
2017-03-23T11:48:42.571Z,180
2017-03-23T11:49:42.606Z,180
2017-03-23T11:50:42.612Z,180
2017-03-23T11:51:42.699Z,185
2017-03-23T11:52:42.659Z,185
2017-03-23T11:53:42.763Z,185
2017-03-23T11:54:42.754Z,185
2017-03-23T11:55:42.775Z,185
2017-03-23T11:56:42.773Z,185
2017-03-23T11:57:42.819Z,190
2017-03-23T11:58:42.860Z,195
2017-03-23T11:59:42.877Z,200
2017-03-23T12:00:42.934Z,210
2017-03-23T12:01:42.953Z,225
2017-03-23T12:02:42.961Z,225
2017-03-23T12:03:43.024Z,225
2017-03-23T12:04:43.034Z,225
2017-03-23T12:05:43.074Z,225
2017-03-23T12:06:43.091Z,225
2017-03-23T12:07:43.100Z,225
2017-03-23T12:08:43.160Z,230
2017-03-23T12:09:43.181Z,235
2017-03-23T12:10:43.299Z,240
2017-03-23T12:11:43.237Z,240
2017-03-23T12:12:43.272Z,245
2017-03-23T12:13:43.276Z,250
2017-03-23T12:14:43.331Z,255
2017-03-23T12:15:43.683Z,265
2017-03-23T12:16:43.394Z,270
2017-03-23T12:17:43.413Z,280
2017-03-23T12:18:43.452Z,285
2017-03-23T12:19:43.470Z,290
2017-03-23T12:20:43.599Z,300
2017-03-23T12:21:43.533Z,310
2017-03-23T12:22:43.542Z,305
2017-03-23T12:23:43.631Z,310
2017-03-23T12:24:43.627Z,315
2017-03-23T12:25:43.819Z,325
2017-03-23T12:26:43.661Z,325
2017-03-23T12:27:43.699Z,330
2017-03-23T12:28:43.746Z,345
2017-03-23T12:29:43.751Z,355
2017-03-23T12:30:43.807Z,370
2017-03-23T12:31:43.830Z,375
2017-03-23T12:32:43.873Z,380
2017-03-23T12:33:43.887Z,390
2017-03-23T12:34:43.935Z,405
2017-03-23T12:35:43.958Z,420
2017-03-23T12:36:43.994Z,430
2017-03-23T12:37:44.020Z,435
2017-03-23T12:38:44.026Z,430
2017-03-23T12:39:44.079Z,420
2017-03-23T12:40:44.109Z,420
2017-03-23T12:41:44.140Z,425
2017-03-23T12:42:44.152Z,430
2017-03-23T12:43:44.215Z,435
2017-03-23T12:44:44.224Z,435
2017-03-23T12:45:44.288Z,440
2017-03-23T12:46:44.290Z,430
2017-03-23T12:47:44.303Z,430
2017-03-23T12:48:44.358Z,430
2017-03-23T12:49:44.399Z,425
2017-03-23T12:50:44.372Z,425
2017-03-23T12:51:44.434Z,410
2017-03-23T12:52:44.438Z,410
2017-03-23T12:53:44.500Z,430
2017-03-23T12:54:44.531Z,425
2017-03-23T12:55:44.535Z,425
2017-03-23T12:56:44.740Z,425
2017-03-23T12:57:44.605Z,420
2017-03-23T12:58:44.658Z,405
2017-03-23T12:59:44.653Z,400
2017-03-23T13:00:44.686Z,415
2017-03-23T13:01:44.891Z,430
2017-03-23T13:02:44.737Z,430
2017-03-23T13:03:44.769Z,425
2017-03-23T13:04:44.835Z,420
2017-03-23T13:05:44.822Z,405
2017-03-23T13:06:45.020Z,380
2017-03-23T13:07:44.929Z,345
2017-03-23T13:08:44.933Z,320
2017-03-23T13:09:44.953Z,350
2017-03-23T13:10:45.045Z,345
2017-03-23T13:11:45.409Z,340
2017-03-23T13:12:45.062Z,355
2017-03-23T13:13:45.102Z,360
2017-03-23T13:14:45.130Z,370
2017-03-23T13:15:45.134Z,385
2017-03-23T13:16:45.351Z,395
2017-03-23T13:17:45.204Z,405
2017-03-23T13:18:45.255Z,420
2017-03-23T13:19:45.286Z,435
2017-03-23T13:20:45.311Z,430
2017-03-23T13:21:45.337Z,435
2017-03-23T13:22:45.380Z,435
2017-03-23T13:23:45.402Z,435
2017-03-23T13:24:45.437Z,440
2017-03-23T13:25:45.438Z,445
2017-03-23T13:26:45.487Z,465
2017-03-23T13:27:45.578Z,470
2017-03-23T13:28:45.545Z,470
2017-03-23T13:29:45.581Z,480
2017-03-23T13:30:45.609Z,475
2017-03-23T13:31:45.650Z,475
2017-03-23T13:32:45.669Z,470
2017-03-23T13:33:45.741Z,460
2017-03-23T13:34:45.734Z,455
2017-03-23T13:35:45.784Z,445
2017-03-23T13:36:45.846Z,430
2017-03-23T13:37:45.816Z,415
2017-03-23T13:38:45.834Z,405
2017-03-23T13:39:45.883Z,385
2017-03-23T13:40:45.912Z,370
2017-03-23T13:41:45.949Z,335
2017-03-23T13:42:46.136Z,310
2017-03-23T13:43:46.012Z,290
2017-03-23T13:44:46.039Z,275
2017-03-23T13:45:46.001Z,300
2017-03-23T13:46:46.081Z,280
2017-03-23T13:47:46.249Z,270
2017-03-23T13:48:46.161Z,280
2017-03-23T13:49:46.184Z,255
2017-03-23T13:50:46.199Z,240
2017-03-23T13:51:46.225Z,210
2017-03-23T13:52:46.428Z,170
2017-03-23T13:53:46.318Z,155
2017-03-23T13:54:46.320Z,160
2017-03-23T13:55:46.364Z,150
2017-03-23T13:56:46.386Z,140
2017-03-23T13:57:46.751Z,135
2017-03-23T13:58:46.477Z,145
2017-03-23T13:59:46.511Z,140
2017-03-23T14:00:46.509Z,130
2017-03-23T14:01:46.546Z,125
2017-03-23T14:02:46.550Z,140
2017-03-23T14:03:46.607Z,150
2017-03-23T14:04:46.635Z,150
2017-03-23T14:05:46.672Z,130
2017-03-23T14:06:46.680Z,115
2017-03-23T14:07:46.737Z,105
2017-03-23T14:08:46.763Z,100
2017-03-23T14:09:46.771Z,105
2017-03-23T14:10:46.774Z,90
2017-03-23T14:11:46.851Z,80
2017-03-23T14:12:46.883Z,80
2017-03-23T14:13:46.906Z,85
2017-03-23T14:14:46.947Z,85
2017-03-23T14:15:46.973Z,85
2017-03-23T14:16:46.973Z,80
2017-03-23T14:17:47.009Z,75
2017-03-23T14:18:47.052Z,75
2017-03-23T14:19:47.085Z,70
2017-03-23T14:20:47.126Z,70
2017-03-23T14:21:47.146Z,75
2017-03-23T14:22:47.155Z,75
2017-03-23T14:23:47.200Z,75
2017-03-23T14:24:47.227Z,70
2017-03-23T14:25:47.325Z,65
2017-03-23T14:26:47.246Z,60
2017-03-23T14:27:47.353Z,55
2017-03-23T14:28:47.344Z,50
2017-03-23T14:29:47.373Z,50
2017-03-23T14:30:47.401Z,50
2017-03-23T14:31:47.418Z,50
2017-03-23T14:32:47.453Z,45
2017-03-23T14:33:47.478Z,50
2017-03-23T14:34:47.524Z,55
2017-03-23T14:35:47.692Z,55
2017-03-23T14:36:47.554Z,60
2017-03-23T14:37:47.597Z,60
2017-03-23T14:38:47.616Z,55
2017-03-23T14:39:47.651Z,55
2017-03-23T14:40:47.844Z,55
2017-03-23T14:41:47.744Z,55
2017-03-23T14:42:47.736Z,55
2017-03-23T14:43:47.758Z,50
2017-03-23T14:44:47.817Z,45
2017-03-23T14:45:47.921Z,50
2017-03-23T14:46:47.850Z,50
2017-03-23T14:47:47.872Z,50
2017-03-23T14:48:47.928Z,50
2017-03-23T14:49:47.969Z,55
2017-03-23T14:50:48.072Z,55
2017-03-23T14:51:48.007Z,55